createdAt,value
2022-11-05T00:03:07.104Z,21.20
2022-11-05T00:06:06.783Z,22.60
2022-11-05T00:08:56.261Z,24.70
2022-11-05T00:11:47.086Z,23.13
2022-11-05T00:14:36.068Z,21.52
2022-11-05T00:17:06.960Z,21.63
2022-11-05T00:22:39.738Z,22.48
2022-11-05T00:25:20.067Z,25.02
2022-11-05T00:27:55.289Z,21.15
2022-11-05T00:30:28.842Z,22.15
2022-11-05T00:33:06.585Z,20.95
2022-11-05T00:35:37.611Z,18.70
2022-11-05T00:38:12.255Z,21.10
2022-11-05T00:40:43.155Z,19.92
2022-11-05T00:43:32.082Z,17.83
2022-11-05T00:46:03.171Z,23.45
2022-11-05T00:48:52.070Z,21.73
2022-11-05T00:51:23.007Z,23.48
2022-11-05T00:53:54.146Z,19.63
2022-11-05T00:56:25.248Z,23.30
2022-11-05T00:58:57.436Z,20.45
2022-11-05T01:01:28.419Z,24.25
2022-11-05T01:03:59.538Z,21.98
2022-11-05T01:06:30.547Z,24.02
2022-11-05T01:09:01.431Z,21.67
2022-11-05T01:11:35.250Z,19.42
2022-11-05T01:16:39.199Z,21.73
2022-11-05T01:19:12.070Z,20.45
2022-11-05T01:21:43.074Z,21.98
2022-11-05T01:24:14.106Z,22.80
2022-11-05T01:26:45.204Z,21.17
2022-11-05T01:29:16.425Z,21.95
2022-11-05T01:31:47.615Z,21.85
2022-11-05T01:34:24.690Z,20.73
2022-11-05T01:36:55.544Z,22.67
2022-11-05T01:39:26.347Z,21.45
2022-11-05T01:42:00.216Z,21.42
2022-11-05T01:47:48.856Z,21.02
2022-11-05T01:51:03.453Z,22.38
2022-11-05T01:53:55.721Z,22.02
2022-11-05T01:56:34.371Z,20.40
2022-11-05T01:59:22.802Z,22.95
2022-11-05T02:02:14.018Z,24.50
2022-11-05T02:04:50.321Z,21.67
2022-11-05T02:07:21.786Z,21.92
2022-11-05T02:10:19.437Z,22.10
2022-11-05T02:12:50.698Z,22.27
2022-11-05T02:15:49.972Z,21.27
2022-11-05T02:18:45.156Z,23.73
2022-11-05T02:21:57.486Z,21.60
2022-11-05T02:25:02.694Z,25.70
2022-11-05T02:27:56.729Z,22.65
2022-11-05T02:30:51.061Z,24.58
2022-11-05T02:33:30.176Z,23.38
2022-11-05T02:36:22.700Z,23.95
2022-11-05T02:39:33.379Z,24.00
2022-11-05T02:42:30.013Z,25.35
2022-11-05T02:45:06.661Z,26.23
2022-11-05T02:48:01.740Z,23.40
2022-11-05T02:50:41.493Z,24.20
2022-11-05T02:53:21.784Z,22.38
2022-11-05T02:56:15.927Z,26.40
2022-11-05T02:58:46.932Z,24.17
2022-11-05T03:01:17.978Z,25.58
2022-11-05T03:04:04.120Z,22.73
2022-11-05T03:06:53.014Z,25.05
2022-11-05T03:09:48.895Z,24.35
2022-11-05T03:13:03.760Z,22.35
2022-11-05T03:15:58.465Z,23.13
2022-11-05T03:19:00.267Z,21.77
2022-11-05T03:21:42.647Z,23.50
2022-11-05T03:24:25.515Z,23.85
2022-11-05T03:27:09.735Z,23.42
2022-11-05T03:30:00.096Z,22.83
2022-11-05T03:33:02.116Z,24.27
2022-11-05T03:35:45.643Z,25.35
2022-11-05T03:38:32.577Z,24.65
2022-11-05T03:41:07.799Z,25.13
2022-11-05T03:43:44.060Z,24.77
2022-11-05T03:46:29.502Z,26.85
2022-11-05T03:49:05.412Z,24.85
2022-11-05T03:51:55.902Z,26.08
2022-11-05T03:54:28.181Z,26.70
2022-11-05T03:57:14.375Z,25.08
2022-11-05T03:59:47.595Z,26.48
2022-11-05T04:02:21.562Z,22.75
2022-11-05T04:04:52.523Z,24.88
2022-11-05T04:08:01.823Z,24.98
2022-11-05T04:10:51.044Z,24.38
2022-11-05T04:13:28.067Z,27.23
2022-11-05T04:16:17.542Z,21.35
2022-11-05T04:18:51.416Z,24.77
2022-11-05T04:24:11.096Z,23.33
2022-11-05T04:26:46.668Z,24.95
2022-11-05T04:29:35.780Z,27.17
2022-11-05T04:32:07.699Z,23.60
2022-11-05T04:34:38.884Z,24.30
2022-11-05T04:37:09.726Z,22.35
2022-11-05T04:39:40.533Z,23.35
2022-11-05T04:42:17.958Z,22.48
2022-11-05T04:44:48.839Z,24.05
2022-11-05T04:47:19.613Z,23.92
2022-11-05T04:49:51.798Z,27.83
2022-11-05T04:52:25.436Z,24.98
2022-11-05T04:54:56.569Z,25.70
2022-11-05T04:57:27.700Z,25.98
2022-11-05T04:59:59.127Z,23.15
2022-11-05T05:02:33.423Z,26.05
2022-11-05T05:05:16.047Z,23.88
2022-11-05T05:07:47.769Z,24.10
2022-11-05T05:10:18.692Z,24.23
2022-11-05T05:12:49.763Z,23.25
2022-11-05T05:15:20.745Z,24.33
2022-11-05T05:18:11.446Z,22.55
2022-11-05T05:21:00.387Z,22.88
2022-11-05T05:23:31.445Z,24.40
2022-11-05T05:26:02.569Z,23.15
2022-11-05T05:28:33.689Z,24.48
2022-11-05T05:31:04.758Z,25.65
2022-11-05T05:33:35.658Z,25.95
2022-11-05T05:36:11.082Z,24.95
2022-11-05T05:38:42.502Z,24.75
2022-11-05T05:41:36.184Z,25.90
2022-11-05T05:44:08.204Z,22.23
2022-11-05T05:47:00.074Z,24.83
2022-11-05T05:49:30.930Z,23.73
2022-11-05T05:52:01.957Z,23.23
2022-11-05T05:54:39.762Z,25.60
2022-11-05T05:57:13.290Z,26.17
2022-11-05T05:59:45.457Z,23.08
2022-11-05T06:02:17.146Z,23.77
2022-11-05T06:04:48.233Z,24.85
2022-11-05T06:07:19.415Z,27.13
2022-11-05T06:09:50.579Z,26.83
2022-11-05T06:12:21.693Z,29.40
2022-11-05T06:14:52.696Z,26.50
2022-11-05T06:17:23.897Z,20.30
2022-11-05T06:19:54.987Z,25.88
2022-11-05T06:22:26.083Z,24.70
2022-11-05T06:24:56.934Z,26.17
2022-11-05T06:27:27.831Z,25.58
2022-11-05T06:29:58.854Z,24.98
2022-11-05T06:32:30.261Z,23.33
2022-11-05T06:35:01.297Z,22.23
2022-11-05T06:37:37.170Z,25.58
2022-11-05T06:40:10.676Z,24.08
2022-11-05T06:42:41.762Z,22.08
2022-11-05T06:45:32.692Z,24.27
2022-11-05T06:48:04.022Z,26.73
2022-11-05T06:50:35.335Z,26.70
2022-11-05T06:53:09.596Z,25.40
2022-11-05T06:55:40.757Z,24.92
2022-11-05T06:58:12.204Z,29.83
2022-11-05T07:00:43.288Z,26.42
2022-11-05T07:03:15.366Z,26.65
2022-11-05T07:05:49.683Z,25.42
2022-11-05T07:08:21.103Z,25.73
2022-11-05T07:13:36.257Z,27.52
2022-11-05T07:16:07.567Z,25.65
2022-11-05T07:18:38.712Z,27.98
2022-11-05T07:21:09.685Z,30.25
2022-11-05T07:23:40.773Z,26.38
2022-11-05T07:26:11.607Z,26.20
2022-11-05T07:28:42.673Z,26.30
2022-11-05T07:31:13.569Z,25.65
2022-11-05T07:33:44.371Z,24.00
2022-11-05T07:36:16.312Z,26.48
2022-11-05T07:38:47.225Z,27.10
2022-11-05T07:41:18.455Z,30.10
2022-11-05T07:43:49.314Z,27.55
2022-11-05T07:46:20.173Z,25.90
2022-11-05T07:48:51.103Z,26.27
2022-11-05T07:51:22.285Z,25.05
2022-11-05T07:53:53.082Z,29.73
2022-11-05T07:56:46.362Z,26.73
2022-11-05T07:59:17.461Z,25.70
2022-11-05T08:01:48.678Z,26.35
2022-11-05T08:04:19.699Z,26.88
2022-11-05T08:06:50.749Z,26.60
2022-11-05T08:09:21.801Z,26.95
2022-11-05T08:11:53.307Z,26.67
2022-11-05T08:14:25.163Z,27.17
2022-11-05T08:16:56.324Z,25.45
2022-11-05T08:19:27.492Z,26.17
2022-11-05T08:21:58.338Z,28.02
2022-11-05T08:24:29.343Z,26.33
2022-11-05T08:27:00.366Z,28.60
2022-11-05T08:29:31.335Z,26.75
2022-11-05T08:32:02.229Z,28.10
2022-11-05T08:34:33.182Z,26.95
2022-11-05T08:37:04.585Z,26.30
2022-11-05T08:39:35.443Z,26.13
2022-11-05T08:42:06.377Z,27.38
2022-11-05T08:44:37.485Z,28.75
2022-11-05T08:47:11.635Z,26.77
2022-11-05T08:49:42.409Z,25.52
2022-11-05T08:52:13.414Z,28.83
2022-11-05T08:54:44.951Z,25.45
2022-11-05T08:57:15.981Z,29.70
2022-11-05T08:59:47.232Z,30.00
2022-11-05T09:02:18.459Z,29.70
2022-11-05T09:04:49.634Z,32.10
2022-11-05T09:07:20.717Z,27.95
2022-11-05T09:09:51.667Z,26.45
2022-11-05T09:12:22.560Z,27.80
2022-11-05T09:14:53.381Z,28.05
2022-11-05T09:17:24.885Z,29.88
2022-11-05T09:19:55.769Z,28.95
2022-11-05T09:22:49.280Z,27.42
2022-11-05T09:25:20.438Z,29.10
2022-11-05T09:27:51.597Z,27.75
2022-11-05T09:30:22.813Z,28.90
2022-11-05T09:32:53.798Z,30.42
2022-11-05T09:35:43.354Z,29.17
2022-11-05T09:38:14.442Z,28.92
2022-11-05T09:41:09.643Z,29.65
2022-11-05T09:43:44.925Z,27.80
2022-11-05T09:46:45.022Z,27.58
2022-11-05T09:49:48.158Z,27.95
2022-11-05T09:52:25.914Z,28.30
2022-11-05T09:54:58.005Z,28.98
2022-11-05T09:57:34.840Z,29.80
2022-11-05T10:00:10.024Z,29.80
2022-11-05T10:02:58.750Z,31.65
2022-11-05T10:05:30.540Z,27.58
2022-11-05T10:08:20.244Z,31.05
2022-11-05T10:10:56.850Z,28.35
2022-11-05T10:13:56.270Z,28.23
2022-11-05T10:16:36.876Z,28.90
2022-11-05T10:19:23.585Z,29.10
2022-11-05T10:22:21.102Z,30.85
2022-11-05T10:24:54.020Z,29.05
2022-11-05T10:27:39.066Z,31.05
2022-11-05T10:30:12.374Z,29.45
2022-11-05T10:32:44.723Z,31.10
2022-11-05T10:35:40.433Z,30.92
2022-11-05T10:38:16.877Z,30.17
2022-11-05T10:41:10.999Z,29.25
2022-11-05T10:43:54.162Z,29.80
2022-11-05T10:46:25.211Z,27.77
2022-11-05T10:48:56.311Z,31.52
2022-11-05T10:51:27.924Z,29.00
2022-11-05T10:54:07.150Z,31.10
2022-11-05T10:56:41.027Z,29.75
2022-11-05T10:59:30.081Z,30.60
2022-11-05T11:02:23.553Z,29.63
2022-11-05T11:04:56.801Z,30.23
2022-11-05T11:07:28.911Z,32.67
2022-11-05T11:09:59.933Z,30.25
2022-11-05T11:12:41.232Z,30.50
2022-11-05T11:15:25.746Z,29.45
2022-11-05T11:17:58.366Z,32.10
2022-11-05T11:20:34.182Z,28.10
2022-11-05T11:23:15.568Z,31.27
2022-11-05T11:26:02.312Z,30.17
2022-11-05T11:28:53.193Z,29.08
2022-11-05T11:31:30.261Z,30.58
2022-11-05T11:34:08.927Z,32.72
2022-11-05T11:36:48.349Z,27.63
2022-11-05T11:39:27.479Z,31.02
2022-11-05T11:42:02.106Z,29.95
2022-11-05T11:44:38.678Z,26.00
2022-11-05T11:47:16.347Z,28.88
2022-11-05T11:50:18.446Z,33.00
2022-11-05T11:52:49.404Z,31.05
2022-11-05T11:55:24.821Z,28.65
2022-11-05T11:58:12.008Z,28.83
2022-11-05T12:00:51.377Z,27.80
2022-11-05T12:03:27.024Z,27.48
2022-11-05T12:06:13.748Z,31.83
2022-11-05T12:09:09.097Z,30.67
2022-11-05T12:12:04.582Z,26.88
2022-11-05T12:14:50.367Z,31.27
2022-11-05T12:20:32.411Z,29.60
2022-11-05T12:23:22.076Z,30.05
2022-11-05T12:26:09.502Z,33.45
2022-11-05T12:29:16.763Z,32.17
2022-11-05T12:32:01.824Z,31.55
2022-11-05T12:35:08.117Z,32.80
2022-11-05T12:37:57.142Z,31.35
2022-11-05T12:40:40.073Z,34.08
2022-11-05T12:43:50.884Z,33.45
2022-11-05T12:46:52.138Z,33.22
2022-11-05T12:49:43.822Z,32.63
2022-11-05T12:52:45.219Z,32.78
2022-11-05T12:55:25.928Z,32.55
2022-11-05T12:58:29.675Z,33.03
2022-11-05T13:01:17.266Z,32.63
2022-11-05T13:04:19.777Z,35.90
2022-11-05T13:06:54.947Z,33.75
2022-11-05T13:09:36.447Z,29.52
2022-11-05T13:12:14.730Z,31.55
2022-11-05T13:15:01.320Z,32.38
2022-11-05T13:17:55.729Z,32.35
2022-11-05T13:23:22.864Z,34.55
2022-11-05T13:26:05.016Z,30.08
2022-11-05T13:29:01.367Z,33.25
2022-11-05T13:32:06.706Z,29.88
2022-11-05T13:34:38.698Z,30.83
2022-11-05T13:37:31.154Z,32.05
2022-11-05T13:40:08.769Z,28.38
2022-11-05T13:42:58.148Z,31.13
2022-11-05T13:45:47.818Z,33.15
2022-11-05T13:48:51.093Z,36.25
2022-11-05T13:51:43.399Z,32.30
2022-11-05T13:54:39.238Z,32.65
2022-11-05T13:57:48.323Z,32.78
2022-11-05T14:00:25.592Z,28.00
2022-11-05T14:03:21.048Z,30.58
2022-11-05T14:05:58.107Z,32.42
2022-11-05T14:08:30.771Z,31.23
2022-11-05T14:11:35.767Z,30.75
2022-11-05T14:14:46.399Z,33.53
2022-11-05T14:17:28.194Z,35.03
2022-11-05T14:20:24.676Z,31.58
2022-11-05T14:23:16.039Z,30.58
2022-11-05T14:25:47.995Z,34.72
2022-11-05T14:28:37.851Z,29.85
2022-11-05T14:31:54.534Z,29.42
2022-11-05T14:34:50.867Z,31.27
2022-11-05T14:37:38.312Z,30.30
2022-11-05T14:40:25.070Z,32.60
2022-11-05T14:43:09.337Z,30.35
2022-11-05T14:46:31.762Z,30.30
2022-11-05T14:49:11.145Z,28.33
2022-11-05T14:51:47.667Z,33.85
2022-11-05T14:54:39.081Z,31.63
2022-11-05T14:57:13.411Z,30.17
2022-11-05T15:00:00.231Z,32.40
2022-11-05T15:02:39.564Z,30.08
2022-11-05T15:05:39.529Z,34.53
2022-11-05T15:08:38.532Z,31.33
2022-11-05T15:11:27.394Z,33.63
2022-11-05T15:14:22.189Z,34.15
2022-11-05T15:17:17.580Z,34.05
2022-11-05T15:19:49.956Z,31.48
2022-11-05T15:22:31.768Z,34.03
2022-11-05T15:25:03.367Z,34.33
2022-11-05T15:27:49.482Z,30.65
2022-11-05T15:30:23.900Z,32.90
2022-11-05T15:32:55.377Z,34.80
2022-11-05T15:35:31.812Z,33.15
2022-11-05T15:38:03.128Z,33.92
2022-11-05T15:40:36.168Z,33.42
2022-11-05T15:43:12.831Z,31.27
2022-11-05T15:46:04.071Z,34.10
2022-11-05T15:48:38.749Z,30.08
2022-11-05T15:51:32.479Z,35.30
2022-11-05T15:57:02.246Z,32.13
2022-11-05T15:59:33.827Z,31.85
2022-11-05T16:02:19.957Z,30.67
2022-11-05T16:04:55.048Z,32.13
2022-11-05T16:07:26.656Z,32.50
2022-11-05T16:10:01.278Z,32.42
2022-11-05T16:12:42.099Z,33.80
2022-11-05T16:15:13.180Z,33.15
2022-11-05T16:17:54.749Z,30.00
2022-11-05T16:20:33.559Z,32.92
2022-11-05T16:23:41.945Z,32.08
2022-11-05T16:27:01.156Z,32.60
2022-11-05T16:29:35.576Z,30.02
2022-11-05T16:32:21.371Z,33.55
2022-11-05T16:35:02.852Z,33.42
2022-11-05T16:37:45.182Z,30.70
2022-11-05T16:40:27.567Z,35.63
2022-11-05T16:43:17.396Z,31.15
2022-11-05T16:46:13.437Z,34.40
2022-11-05T16:48:47.221Z,32.83
2022-11-05T16:53:52.319Z,32.72
2022-11-05T16:56:24.943Z,32.58
2022-11-05T16:58:56.515Z,33.10
2022-11-05T17:01:29.275Z,32.53
2022-11-05T17:04:00.390Z,29.98
2022-11-05T17:06:31.266Z,32.50
2022-11-05T17:09:02.365Z,32.33
2022-11-05T17:11:33.480Z,30.80
2022-11-05T17:14:24.259Z,35.25
2022-11-05T17:16:55.528Z,35.13
2022-11-05T17:19:26.673Z,33.22
2022-11-05T17:21:58.151Z,30.77
2022-11-05T17:24:29.269Z,32.00
2022-11-05T17:27:00.336Z,30.77
2022-11-05T17:29:32.456Z,32.30
2022-11-05T17:32:03.410Z,31.20
2022-11-05T17:34:55.914Z,32.08
2022-11-05T17:37:26.786Z,34.28
2022-11-05T17:39:57.801Z,30.45
2022-11-05T17:42:48.599Z,32.22
2022-11-05T17:45:20.419Z,34.47
2022-11-05T17:47:51.482Z,30.83
2022-11-05T17:50:23.140Z,33.45
2022-11-05T17:52:53.951Z,32.00
2022-11-05T17:55:24.828Z,30.40
2022-11-05T17:57:55.926Z,29.17
2022-11-05T18:00:27.471Z,32.70
2022-11-05T18:03:01.142Z,31.23
2022-11-05T18:05:33.514Z,28.65
2022-11-05T18:08:04.635Z,31.85
2022-11-05T18:10:38.453Z,29.02
2022-11-05T18:15:42.455Z,29.20
2022-11-05T18:18:13.638Z,30.17
2022-11-05T18:20:44.927Z,27.77
2022-11-05T18:23:16.230Z,31.77
2022-11-05T18:25:47.278Z,33.08
2022-11-05T18:28:18.147Z,31.85
2022-11-05T18:30:49.905Z,32.42
2022-11-05T18:33:20.713Z,34.88
2022-11-05T18:35:51.508Z,30.55
2022-11-05T18:38:22.639Z,31.55
2022-11-05T18:40:53.726Z,31.65
2022-11-05T18:43:24.571Z,33.65
2022-11-05T18:45:59.076Z,30.77
2022-11-05T18:48:30.076Z,32.08
2022-11-05T18:51:02.007Z,30.10
2022-11-05T18:53:33.264Z,30.25
2022-11-05T18:56:13.065Z,33.92
2022-11-05T18:58:44.754Z,34.20
2022-11-05T19:01:21.537Z,32.17
2022-11-05T19:03:53.052Z,35.15
2022-11-05T19:06:26.233Z,31.15
2022-11-05T19:09:00.117Z,31.60
2022-11-05T19:14:14.915Z,31.25
2022-11-05T19:16:46.167Z,33.10
2022-11-05T19:19:17.562Z,35.85
2022-11-05T19:21:48.907Z,29.48
2022-11-05T19:24:20.140Z,32.65
2022-11-05T19:26:51.710Z,34.60
2022-11-05T19:29:22.747Z,32.67
2022-11-05T19:31:53.686Z,29.75
2022-11-05T19:34:24.984Z,31.95
2022-11-05T19:36:55.837Z,31.05
2022-11-05T19:39:26.788Z,33.90
2022-11-05T19:42:03.744Z,32.58
2022-11-05T19:44:35.695Z,33.78
2022-11-05T19:47:07.548Z,30.77
2022-11-05T19:49:38.449Z,32.17
2022-11-05T19:52:09.603Z,31.88
2022-11-05T19:57:27.350Z,33.40
2022-11-05T19:59:58.287Z,32.85
2022-11-05T20:02:49.318Z,31.65
2022-11-05T20:05:20.391Z,32.75
2022-11-05T20:07:52.931Z,30.27
2022-11-05T20:10:24.379Z,31.23
2022-11-05T20:12:55.421Z,33.38
2022-11-05T20:15:26.303Z,32.63
2022-11-05T20:18:19.715Z,30.48
2022-11-05T20:20:50.940Z,32.53
2022-11-05T20:23:21.778Z,32.83
2022-11-05T20:25:55.050Z,35.83
2022-11-05T20:28:26.212Z,33.45
2022-11-05T20:31:02.138Z,32.22
2022-11-05T20:33:33.099Z,32.00
2022-11-05T20:36:06.861Z,31.50
2022-11-05T20:41:29.368Z,30.73
2022-11-05T20:44:01.381Z,32.35
2022-11-05T20:46:32.245Z,35.15
2022-11-05T20:49:03.181Z,31.38
2022-11-05T20:51:34.265Z,32.00
2022-11-05T20:54:05.653Z,30.60
2022-11-05T20:56:37.231Z,30.38
2022-11-05T20:59:08.303Z,32.78
2022-11-05T21:01:39.419Z,31.58
2022-11-05T21:04:10.628Z,31.13
2022-11-05T21:07:02.668Z,33.70
2022-11-05T21:09:33.736Z,35.45
2022-11-05T21:12:13.980Z,35.17
2022-11-05T21:15:04.565Z,31.02
2022-11-05T21:17:58.060Z,30.42
2022-11-05T21:20:28.965Z,34.47
2022-11-05T21:23:01.205Z,30.77
2022-11-05T21:25:32.089Z,29.90
2022-11-05T21:28:03.671Z,32.70
2022-11-05T21:30:35.073Z,32.58
2022-11-05T21:33:09.499Z,30.30
2022-11-05T21:35:45.441Z,33.90
2022-11-05T21:38:18.555Z,30.42
2022-11-05T21:40:50.189Z,31.77
2022-11-05T21:46:07.928Z,32.42
2022-11-05T21:48:39.904Z,31.90
2022-11-05T21:51:30.042Z,34.30
2022-11-05T21:54:20.633Z,31.00
2022-11-05T21:57:10.943Z,31.90
2022-11-05T21:59:52.971Z,31.75
2022-11-05T22:02:46.815Z,31.80
2022-11-05T22:05:18.064Z,33.25
2022-11-05T22:07:49.178Z,30.40
2022-11-05T22:10:20.366Z,29.70
2022-11-05T22:13:11.098Z,31.30
2022-11-05T22:15:42.361Z,32.05
2022-11-05T22:18:13.801Z,31.42
2022-11-05T22:20:45.168Z,29.63
2022-11-05T22:23:16.010Z,33.17
2022-11-05T22:25:47.082Z,32.25
2022-11-05T22:28:17.945Z,30.90
2022-11-05T22:30:48.818Z,32.95
2022-11-05T22:33:20.009Z,29.42
2022-11-05T22:35:51.031Z,31.75
2022-11-05T22:38:21.948Z,35.70
2022-11-05T22:40:52.969Z,34.13
2022-11-05T22:43:24.132Z,32.70
2022-11-05T22:45:55.187Z,35.03
2022-11-05T22:48:26.045Z,32.72
2022-11-05T22:51:21.919Z,30.90
2022-11-05T22:53:52.951Z,33.25
2022-11-05T22:56:26.112Z,32.97
2022-11-05T22:58:57.900Z,31.60
2022-11-05T23:01:30.015Z,30.60
2022-11-05T23:04:01.613Z,33.13
2022-11-05T23:06:53.265Z,30.27
2022-11-05T23:09:43.710Z,33.47
2022-11-05T23:12:34.434Z,33.00
2022-11-05T23:15:07.825Z,32.80
2022-11-05T23:17:57.027Z,32.38
2022-11-05T23:20:46.248Z,31.30
2022-11-05T23:23:38.470Z,30.60
2022-11-05T23:26:29.748Z,31.95
2022-11-05T23:29:00.748Z,29.70
2022-11-05T23:31:49.742Z,32.08
2022-11-05T23:34:20.782Z,33.33
2022-11-05T23:37:09.368Z,32.40
2022-11-05T23:39:42.873Z,32.75
2022-11-05T23:45:20.526Z,32.67
2022-11-05T23:48:09.559Z,33.20
2022-11-05T23:50:42.373Z,34.70
2022-11-05T23:53:13.925Z,33.38
2022-11-05T23:56:08.850Z,34.78
2022-11-05T23:59:00.027Z,34.80
